sensor_id;sensor_type;location;lat;lon;timestamp;P1;durP1;ratioP1;P2;durP2;ratioP2
38224;SDS011;24025;48.138;11.428;2023-06-22T00:01:29;10.50;;;2.97;;
38224;SDS011;24025;48.138;11.428;2023-06-22T00:04:01;10.40;;;2.55;;
38224;SDS011;24025;48.138;11.428;2023-06-22T00:06:32;8.40;;;2.67;;
38224;SDS011;24025;48.138;11.428;2023-06-22T00:09:04;5.65;;;2.80;;
38224;SDS011;24025;48.138;11.428;2023-06-22T00:11:39;8.07;;;2.53;;
38224;SDS011;24025;48.138;11.428;2023-06-22T00:14:11;7.03;;;2.85;;
38224;SDS011;24025;48.138;11.428;2023-06-22T00:16:42;6.50;;;2.58;;
38224;SDS011;24025;48.138;11.428;2023-06-22T00:19:15;7.90;;;2.75;;
38224;SDS011;24025;48.138;11.428;2023-06-22T00:21:47;6.22;;;3.20;;
38224;SDS011;24025;48.138;11.428;2023-06-22T00:24:23;8.10;;;2.92;;
38224;SDS011;24025;48.138;11.428;2023-06-22T00:26:55;9.63;;;2.80;;
38224;SDS011;24025;48.138;11.428;2023-06-22T00:29:27;6.60;;;2.55;;
38224;SDS011;24025;48.138;11.428;2023-06-22T00:31:58;6.93;;;2.92;;
38224;SDS011;24025;48.138;11.428;2023-06-22T00:34:30;8.80;;;2.65;;
38224;SDS011;24025;48.138;11.428;2023-06-22T00:37:02;16.20;;;2.95;;
38224;SDS011;24025;48.138;11.428;2023-06-22T00:39:33;10.60;;;2.85;;
38224;SDS011;24025;48.138;11.428;2023-06-22T00:42:05;6.13;;;2.75;;
38224;SDS011;24025;48.138;11.428;2023-06-22T00:44:36;4.97;;;2.20;;
38224;SDS011;24025;48.138;11.428;2023-06-22T00:47:08;11.13;;;2.78;;
38224;SDS011;24025;48.138;11.428;2023-06-22T00:49:40;8.13;;;2.70;;
38224;SDS011;24025;48.138;11.428;2023-06-22T00:52:11;7.45;;;3.28;;
38224;SDS011;24025;48.138;11.428;2023-06-22T00:54:45;6.03;;;2.60;;
38224;SDS011;24025;48.138;11.428;2023-06-22T00:57:17;5.85;;;2.90;;
38224;SDS011;24025;48.138;11.428;2023-06-22T00:59:49;8.35;;;2.60;;
38224;SDS011;24025;48.138;11.428;2023-06-22T01:02:21;7.05;;;3.10;;
38224;SDS011;24025;48.138;11.428;2023-06-22T01:04:53;7.00;;;2.63;;
38224;SDS011;24025;48.138;11.428;2023-06-22T01:07:35;8.60;;;2.25;;
38224;SDS011;24025;48.138;11.428;2023-06-22T01:10:17;7.03;;;2.95;;
38224;SDS011;24025;48.138;11.428;2023-06-22T01:13:18;9.73;;;3.10;;
38224;SDS011;24025;48.138;11.428;2023-06-22T01:15:57;8.45;;;2.90;;
38224;SDS011;24025;48.138;11.428;2023-06-22T01:18:55;12.43;;;3.20;;
38224;SDS011;24025;48.138;11.428;2023-06-22T01:21:29;7.82;;;3.28;;
38224;SDS011;24025;48.138;11.428;2023-06-22T01:29:15;10.30;;;2.72;;
38224;SDS011;24025;48.138;11.428;2023-06-22T01:31:48;7.07;;;2.97;;
38224;SDS011;24025;48.138;11.428;2023-06-22T01:34:22;10.10;;;3.25;;
38224;SDS011;24025;48.138;11.428;2023-06-22T01:36:55;7.32;;;2.92;;
38224;SDS011;24025;48.138;11.428;2023-06-22T01:39:27;8.80;;;2.38;;
38224;SDS011;24025;48.138;11.428;2023-06-22T01:42:00;5.70;;;2.90;;
38224;SDS011;24025;48.138;11.428;2023-06-22T01:44:34;6.70;;;2.63;;
38224;SDS011;24025;48.138;11.428;2023-06-22T01:47:07;7.22;;;2.85;;
38224;SDS011;24025;48.138;11.428;2023-06-22T01:49:40;10.75;;;3.67;;
38224;SDS011;24025;48.138;11.428;2023-06-22T01:52:12;5.97;;;2.90;;
38224;SDS011;24025;48.138;11.428;2023-06-22T01:54:44;14.73;;;3.42;;
38224;SDS011;24025;48.138;11.428;2023-06-22T01:57:15;8.85;;;3.10;;
38224;SDS011;24025;48.138;11.428;2023-06-22T01:59:48;4.63;;;2.65;;
38224;SDS011;24025;48.138;11.428;2023-06-22T02:02:39;6.80;;;3.25;;
38224;SDS011;24025;48.138;11.428;2023-06-22T02:05:20;8.23;;;3.58;;
38224;SDS011;24025;48.138;11.428;2023-06-22T02:10:31;10.32;;;3.17;;
38224;SDS011;24025;48.138;11.428;2023-06-22T02:13:04;9.90;;;3.40;;
38224;SDS011;24025;48.138;11.428;2023-06-22T02:15:37;6.43;;;2.92;;
38224;SDS011;24025;48.138;11.428;2023-06-22T02:18:10;11.52;;;3.47;;
38224;SDS011;24025;48.138;11.428;2023-06-22T02:20:42;5.47;;;2.85;;
38224;SDS011;24025;48.138;11.428;2023-06-22T02:23:16;7.97;;;3.05;;
38224;SDS011;24025;48.138;11.428;2023-06-22T02:25:48;6.20;;;3.75;;
38224;SDS011;24025;48.138;11.428;2023-06-22T02:30:51;6.75;;;3.08;;
38224;SDS011;24025;48.138;11.428;2023-06-22T02:33:23;9.45;;;3.13;;
38224;SDS011;24025;48.138;11.428;2023-06-22T02:35:54;6.85;;;3.03;;
38224;SDS011;24025;48.138;11.428;2023-06-22T02:38:26;9.57;;;3.28;;
38224;SDS011;24025;48.138;11.428;2023-06-22T02:40:57;5.78;;;2.65;;
38224;SDS011;24025;48.138;11.428;2023-06-22T02:43:29;5.68;;;2.90;;
38224;SDS011;24025;48.138;11.428;2023-06-22T02:46:01;7.55;;;3.00;;
38224;SDS011;24025;48.138;11.428;2023-06-22T02:48:33;6.32;;;2.85;;
38224;SDS011;24025;48.138;11.428;2023-06-22T02:51:05;8.73;;;3.05;;
38224;SDS011;24025;48.138;11.428;2023-06-22T02:53:37;8.57;;;2.70;;
38224;SDS011;24025;48.138;11.428;2023-06-22T02:56:08;11.40;;;2.97;;
38224;SDS011;24025;48.138;11.428;2023-06-22T02:58:40;7.40;;;3.20;;
38224;SDS011;24025;48.138;11.428;2023-06-22T03:01:11;6.47;;;2.80;;
38224;SDS011;24025;48.138;11.428;2023-06-22T03:03:45;7.60;;;2.90;;
38224;SDS011;24025;48.138;11.428;2023-06-22T03:06:16;5.95;;;3.58;;
38224;SDS011;24025;48.138;11.428;2023-06-22T03:08:59;10.65;;;3.08;;
38224;SDS011;24025;48.138;11.428;2023-06-22T03:11:32;8.57;;;3.55;;
38224;SDS011;24025;48.138;11.428;2023-06-22T03:14:04;10.13;;;4.50;;
38224;SDS011;24025;48.138;11.428;2023-06-22T03:16:36;6.20;;;3.30;;
38224;SDS011;24025;48.138;11.428;2023-06-22T03:19:08;11.70;;;3.25;;
38224;SDS011;24025;48.138;11.428;2023-06-22T03:21:39;7.22;;;3.42;;
38224;SDS011;24025;48.138;11.428;2023-06-22T03:24:11;8.02;;;3.45;;
38224;SDS011;24025;48.138;11.428;2023-06-22T03:26:43;11.98;;;3.95;;
38224;SDS011;24025;48.138;11.428;2023-06-22T03:29:17;4.13;;;2.90;;
38224;SDS011;24025;48.138;11.428;2023-06-22T03:31:49;10.20;;;2.92;;
38224;SDS011;24025;48.138;11.428;2023-06-22T03:34:20;4.93;;;3.17;;
38224;SDS011;24025;48.138;11.428;2023-06-22T03:36:52;13.55;;;3.63;;
38224;SDS011;24025;48.138;11.428;2023-06-22T03:39:24;11.32;;;4.07;;
38224;SDS011;24025;48.138;11.428;2023-06-22T03:41:55;7.22;;;3.33;;
38224;SDS011;24025;48.138;11.428;2023-06-22T03:44:27;9.45;;;4.20;;
38224;SDS011;24025;48.138;11.428;2023-06-22T03:46:58;8.20;;;3.70;;
38224;SDS011;24025;48.138;11.428;2023-06-22T03:49:30;10.80;;;3.10;;
38224;SDS011;24025;48.138;11.428;2023-06-22T03:52:02;8.60;;;2.95;;
38224;SDS011;24025;48.138;11.428;2023-06-22T03:54:34;9.00;;;3.60;;
38224;SDS011;24025;48.138;11.428;2023-06-22T03:57:06;6.82;;;3.50;;
38224;SDS011;24025;48.138;11.428;2023-06-22T03:59:37;7.63;;;3.53;;
38224;SDS011;24025;48.138;11.428;2023-06-22T04:02:09;8.27;;;3.53;;
38224;SDS011;24025;48.138;11.428;2023-06-22T04:04:41;7.63;;;3.15;;
38224;SDS011;24025;48.138;11.428;2023-06-22T04:07:13;13.13;;;3.70;;
38224;SDS011;24025;48.138;11.428;2023-06-22T04:09:44;6.00;;;4.10;;
38224;SDS011;24025;48.138;11.428;2023-06-22T04:12:16;13.77;;;3.67;;
38224;SDS011;24025;48.138;11.428;2023-06-22T04:14:47;7.80;;;4.05;;
38224;SDS011;24025;48.138;11.428;2023-06-22T04:17:19;11.93;;;3.85;;
38224;SDS011;24025;48.138;11.428;2023-06-22T04:19:51;7.90;;;3.17;;
38224;SDS011;24025;48.138;11.428;2023-06-22T04:22:23;8.90;;;4.80;;
38224;SDS011;24025;48.138;11.428;2023-06-22T04:24:54;12.15;;;3.80;;
38224;SDS011;24025;48.138;11.428;2023-06-22T04:27:26;6.43;;;3.38;;
38224;SDS011;24025;48.138;11.428;2023-06-22T04:29:58;9.98;;;3.90;;
38224;SDS011;24025;48.138;11.428;2023-06-22T04:32:31;9.45;;;3.60;;
38224;SDS011;24025;48.138;11.428;2023-06-22T04:35:03;7.65;;;4.18;;
38224;SDS011;24025;48.138;11.428;2023-06-22T04:37:38;12.02;;;4.45;;
38224;SDS011;24025;48.138;11.428;2023-06-22T04:40:10;7.93;;;4.13;;
38224;SDS011;24025;48.138;11.428;2023-06-22T04:42:45;9.27;;;4.03;;
38224;SDS011;24025;48.138;11.428;2023-06-22T04:45:23;9.75;;;4.22;;
38224;SDS011;24025;48.138;11.428;2023-06-22T04:47:55;10.60;;;4.55;;
38224;SDS011;24025;48.138;11.428;2023-06-22T04:50:26;13.48;;;3.58;;
38224;SDS011;24025;48.138;11.428;2023-06-22T04:52:58;8.63;;;4.43;;
38224;SDS011;24025;48.138;11.428;2023-06-22T04:55:30;11.35;;;4.28;;
38224;SDS011;24025;48.138;11.428;2023-06-22T04:58:02;8.60;;;3.55;;
38224;SDS011;24025;48.138;11.428;2023-06-22T05:00:36;8.10;;;4.20;;
38224;SDS011;24025;48.138;11.428;2023-06-22T05:03:07;6.90;;;4.35;;
38224;SDS011;24025;48.138;11.428;2023-06-22T05:05:48;14.02;;;4.47;;
38224;SDS011;24025;48.138;11.428;2023-06-22T05:08:20;13.13;;;4.50;;
38224;SDS011;24025;48.138;11.428;2023-06-22T05:10:52;15.02;;;4.65;;
38224;SDS011;24025;48.138;11.428;2023-06-22T05:13:35;13.52;;;4.10;;
38224;SDS011;24025;48.138;11.428;2023-06-22T05:16:07;11.30;;;4.18;;
38224;SDS011;24025;48.138;11.428;2023-06-22T05:18:38;13.32;;;5.07;;
38224;SDS011;24025;48.138;11.428;2023-06-22T05:21:10;10.55;;;4.80;;
38224;SDS011;24025;48.138;11.428;2023-06-22T05:23:41;7.28;;;4.60;;
38224;SDS011;24025;48.138;11.428;2023-06-22T05:26:13;10.90;;;5.95;;
38224;SDS011;24025;48.138;11.428;2023-06-22T05:28:45;11.50;;;5.38;;
38224;SDS011;24025;48.138;11.428;2023-06-22T05:31:17;12.55;;;5.20;;
38224;SDS011;24025;48.138;11.428;2023-06-22T05:33:51;9.25;;;4.65;;
38224;SDS011;24025;48.138;11.428;2023-06-22T05:36:25;20.20;;;6.82;;
38224;SDS011;24025;48.138;11.428;2023-06-22T05:38:56;11.02;;;5.05;;
38224;SDS011;24025;48.138;11.428;2023-06-22T05:41:29;22.73;;;7.70;;
38224;SDS011;24025;48.138;11.428;2023-06-22T05:44:01;9.80;;;4.95;;
38224;SDS011;24025;48.138;11.428;2023-06-22T05:49:04;13.43;;;5.13;;
38224;SDS011;24025;48.138;11.428;2023-06-22T05:51:36;13.43;;;5.75;;
38224;SDS011;24025;48.138;11.428;2023-06-22T05:54:07;8.02;;;4.80;;
38224;SDS011;24025;48.138;11.428;2023-06-22T05:56:40;19.23;;;5.97;;
38224;SDS011;24025;48.138;11.428;2023-06-22T05:59:11;14.27;;;5.68;;
38224;SDS011;24025;48.138;11.428;2023-06-22T06:01:43;12.63;;;5.32;;
38224;SDS011;24025;48.138;11.428;2023-06-22T06:04:18;15.40;;;6.18;;
38224;SDS011;24025;48.138;11.428;2023-06-22T06:06:50;13.07;;;5.70;;
38224;SDS011;24025;48.138;11.428;2023-06-22T06:09:22;11.32;;;5.20;;
38224;SDS011;24025;48.138;11.428;2023-06-22T06:11:54;12.15;;;5.43;;
38224;SDS011;24025;48.138;11.428;2023-06-22T06:14:25;13.32;;;5.63;;
38224;SDS011;24025;48.138;11.428;2023-06-22T06:16:57;11.32;;;5.28;;
38224;SDS011;24025;48.138;11.428;2023-06-22T06:19:28;11.95;;;5.93;;
38224;SDS011;24025;48.138;11.428;2023-06-22T06:22:00;10.68;;;5.65;;
38224;SDS011;24025;48.138;11.428;2023-06-22T06:24:31;16.48;;;5.53;;
38224;SDS011;24025;48.138;11.428;2023-06-22T06:27:03;18.00;;;5.07;;
38224;SDS011;24025;48.138;11.428;2023-06-22T06:29:36;11.30;;;5.15;;
38224;SDS011;24025;48.138;11.428;2023-06-22T06:32:07;17.50;;;6.47;;
38224;SDS011;24025;48.138;11.428;2023-06-22T06:34:40;18.40;;;5.20;;
38224;SDS011;24025;48.138;11.428;2023-06-22T06:39:43;19.17;;;5.30;;
38224;SDS011;24025;48.138;11.428;2023-06-22T06:42:15;13.38;;;5.22;;
38224;SDS011;24025;48.138;11.428;2023-06-22T06:44:46;17.05;;;5.70;;
38224;SDS011;24025;48.138;11.428;2023-06-22T06:47:18;20.17;;;5.78;;
38224;SDS011;24025;48.138;11.428;2023-06-22T06:49:50;12.68;;;6.03;;
38224;SDS011;24025;48.138;11.428;2023-06-22T06:52:21;11.98;;;5.88;;
38224;SDS011;24025;48.138;11.428;2023-06-22T06:54:53;13.13;;;6.55;;
38224;SDS011;24025;48.138;11.428;2023-06-22T06:57:24;13.05;;;5.45;;
38224;SDS011;24025;48.138;11.428;2023-06-22T07:00:00;15.40;;;6.72;;
38224;SDS011;24025;48.138;11.428;2023-06-22T07:02:31;19.75;;;5.72;;
38224;SDS011;24025;48.138;11.428;2023-06-22T07:05:03;16.98;;;5.35;;
38224;SDS011;24025;48.138;11.428;2023-06-22T07:07:35;11.10;;;6.18;;
38224;SDS011;24025;48.138;11.428;2023-06-22T07:10:09;14.32;;;5.65;;
38224;SDS011;24025;48.138;11.428;2023-06-22T07:15:13;15.53;;;5.43;;
38224;SDS011;24025;48.138;11.428;2023-06-22T07:17:45;12.90;;;5.57;;
38224;SDS011;24025;48.138;11.428;2023-06-22T07:20:17;12.82;;;5.97;;
38224;SDS011;24025;48.138;11.428;2023-06-22T07:22:51;15.95;;;5.25;;
38224;SDS011;24025;48.138;11.428;2023-06-22T07:25:22;12.15;;;6.00;;
38224;SDS011;24025;48.138;11.428;2023-06-22T07:28:04;10.95;;;5.15;;
38224;SDS011;24025;48.138;11.428;2023-06-22T07:30:38;16.60;;;5.43;;
38224;SDS011;24025;48.138;11.428;2023-06-22T07:33:10;14.23;;;4.68;;
38224;SDS011;24025;48.138;11.428;2023-06-22T07:38:13;16.35;;;6.93;;
38224;SDS011;24025;48.138;11.428;2023-06-22T07:40:46;19.45;;;5.70;;
38224;SDS011;24025;48.138;11.428;2023-06-22T07:43:18;12.93;;;5.18;;
38224;SDS011;24025;48.138;11.428;2023-06-22T07:45:52;18.90;;;5.47;;
38224;SDS011;24025;48.138;11.428;2023-06-22T07:50:55;12.43;;;5.30;;
38224;SDS011;24025;48.138;11.428;2023-06-22T07:53:27;15.90;;;5.70;;
38224;SDS011;24025;48.138;11.428;2023-06-22T07:55:59;10.20;;;5.22;;
38224;SDS011;24025;48.138;11.428;2023-06-22T07:58:31;11.45;;;5.60;;
38224;SDS011;24025;48.138;11.428;2023-06-22T08:01:02;16.60;;;6.10;;
38224;SDS011;24025;48.138;11.428;2023-06-22T08:03:35;10.27;;;5.13;;
38224;SDS011;24025;48.138;11.428;2023-06-22T08:06:07;14.10;;;5.60;;
38224;SDS011;24025;48.138;11.428;2023-06-22T08:08:40;18.40;;;6.22;;
38224;SDS011;24025;48.138;11.428;2023-06-22T08:11:13;16.95;;;6.22;;
38224;SDS011;24025;48.138;11.428;2023-06-22T08:13:45;19.25;;;5.80;;
38224;SDS011;24025;48.138;11.428;2023-06-22T08:16:17;23.70;;;5.55;;
38224;SDS011;24025;48.138;11.428;2023-06-22T08:18:48;17.52;;;6.35;;
38224;SDS011;24025;48.138;11.428;2023-06-22T08:21:20;14.35;;;5.80;;
38224;SDS011;24025;48.138;11.428;2023-06-22T08:23:51;17.52;;;6.25;;
38224;SDS011;24025;48.138;11.428;2023-06-22T08:28:54;18.13;;;6.20;;
38224;SDS011;24025;48.138;11.428;2023-06-22T08:31:26;12.90;;;5.85;;
38224;SDS011;24025;48.138;11.428;2023-06-22T08:33:58;14.10;;;4.90;;
38224;SDS011;24025;48.138;11.428;2023-06-22T08:36:29;15.07;;;5.78;;
38224;SDS011;24025;48.138;11.428;2023-06-22T08:39:03;18.80;;;5.40;;
38224;SDS011;24025;48.138;11.428;2023-06-22T08:41:35;17.73;;;5.85;;
38224;SDS011;24025;48.138;11.428;2023-06-22T08:44:07;17.60;;;5.65;;
38224;SDS011;24025;48.138;11.428;2023-06-22T08:49:11;17.50;;;5.72;;
38224;SDS011;24025;48.138;11.428;2023-06-22T08:51:43;22.27;;;6.68;;
38224;SDS011;24025;48.138;11.428;2023-06-22T08:54:16;16.35;;;6.13;;
38224;SDS011;24025;48.138;11.428;2023-06-22T08:56:48;17.33;;;5.35;;
38224;SDS011;24025;48.138;11.428;2023-06-22T09:01:51;17.23;;;5.85;;
38224;SDS011;24025;48.138;11.428;2023-06-22T09:04:23;16.65;;;6.03;;
38224;SDS011;24025;48.138;11.428;2023-06-22T09:06:55;15.90;;;6.30;;
38224;SDS011;24025;48.138;11.428;2023-06-22T09:09:27;15.13;;;5.20;;
38224;SDS011;24025;48.138;11.428;2023-06-22T09:11:58;15.77;;;5.78;;
38224;SDS011;24025;48.138;11.428;2023-06-22T09:14:30;10.73;;;5.40;;
38224;SDS011;24025;48.138;11.428;2023-06-22T09:17:02;22.00;;;5.78;;
38224;SDS011;24025;48.138;11.428;2023-06-22T09:22:05;14.77;;;5.90;;
38224;SDS011;24025;48.138;11.428;2023-06-22T09:24:37;19.95;;;5.65;;
38224;SDS011;24025;48.138;11.428;2023-06-22T09:27:09;12.63;;;5.15;;
38224;SDS011;24025;48.138;11.428;2023-06-22T09:29:40;20.58;;;5.40;;
38224;SDS011;24025;48.138;11.428;2023-06-22T09:32:12;15.07;;;5.43;;
38224;SDS011;24025;48.138;11.428;2023-06-22T09:34:44;19.77;;;5.65;;
38224;SDS011;24025;48.138;11.428;2023-06-22T09:39:47;13.40;;;4.90;;
38224;SDS011;24025;48.138;11.428;2023-06-22T09:44:50;18.58;;;5.35;;
38224;SDS011;24025;48.138;11.428;2023-06-22T09:49:53;14.73;;;5.68;;
38224;SDS011;24025;48.138;11.428;2023-06-22T09:52:26;8.93;;;4.78;;
38224;SDS011;24025;48.138;11.428;2023-06-22T09:55:17;16.48;;;5.47;;
38224;SDS011;24025;48.138;11.428;2023-06-22T10:00:20;14.30;;;5.65;;
38224;SDS011;24025;48.138;11.428;2023-06-22T10:02:53;12.90;;;5.65;;
38224;SDS011;24025;48.138;11.428;2023-06-22T10:05:25;14.38;;;4.65;;
38224;SDS011;24025;48.138;11.428;2023-06-22T10:07:57;18.80;;;5.65;;
38224;SDS011;24025;48.138;11.428;2023-06-22T10:13:03;16.40;;;5.40;;
38224;SDS011;24025;48.138;11.428;2023-06-22T10:15:41;18.60;;;5.38;;
38224;SDS011;24025;48.138;11.428;2023-06-22T10:18:12;13.05;;;4.63;;
38224;SDS011;24025;48.138;11.428;2023-06-22T10:23:20;15.90;;;5.45;;
38224;SDS011;24025;48.138;11.428;2023-06-22T10:25:52;16.48;;;5.45;;
38224;SDS011;24025;48.138;11.428;2023-06-22T10:30:55;11.80;;;5.57;;
38224;SDS011;24025;48.138;11.428;2023-06-22T10:33:26;20.27;;;6.10;;
38224;SDS011;24025;48.138;11.428;2023-06-22T10:35:58;17.05;;;7.05;;
38224;SDS011;24025;48.138;11.428;2023-06-22T10:38:29;19.98;;;5.32;;
38224;SDS011;24025;48.138;11.428;2023-06-22T10:41:01;20.98;;;6.18;;
38224;SDS011;24025;48.138;11.428;2023-06-22T10:43:33;10.98;;;4.80;;
38224;SDS011;24025;48.138;11.428;2023-06-22T10:46:06;10.35;;;5.63;;
38224;SDS011;24025;48.138;11.428;2023-06-22T10:48:37;22.55;;;6.15;;
38224;SDS011;24025;48.138;11.428;2023-06-22T10:51:09;15.05;;;5.60;;
38224;SDS011;24025;48.138;11.428;2023-06-22T10:53:41;13.57;;;5.22;;
38224;SDS011;24025;48.138;11.428;2023-06-22T10:56:12;17.15;;;6.00;;
38224;SDS011;24025;48.138;11.428;2023-06-22T10:58:44;17.90;;;5.70;;
38224;SDS011;24025;48.138;11.428;2023-06-22T11:01:16;17.63;;;6.15;;
38224;SDS011;24025;48.138;11.428;2023-06-22T11:04:05;12.32;;;4.97;;
38224;SDS011;24025;48.138;11.428;2023-06-22T11:06:37;21.17;;;5.13;;
38224;SDS011;24025;48.138;11.428;2023-06-22T11:09:08;19.05;;;5.47;;
38224;SDS011;24025;48.138;11.428;2023-06-22T11:11:56;19.73;;;4.88;;
38224;SDS011;24025;48.138;11.428;2023-06-22T11:14:27;15.43;;;6.28;;
38224;SDS011;24025;48.138;11.428;2023-06-22T11:16:59;11.52;;;5.43;;
38224;SDS011;24025;48.138;11.428;2023-06-22T11:19:31;18.90;;;5.75;;
38224;SDS011;24025;48.138;11.428;2023-06-22T11:22:02;14.95;;;5.80;;
38224;SDS011;24025;48.138;11.428;2023-06-22T11:24:34;20.10;;;5.63;;
38224;SDS011;24025;48.138;11.428;2023-06-22T11:27:05;16.65;;;5.25;;
38224;SDS011;24025;48.138;11.428;2023-06-22T11:29:37;14.60;;;4.97;;
38224;SDS011;24025;48.138;11.428;2023-06-22T11:32:10;13.95;;;4.90;;
38224;SDS011;24025;48.138;11.428;2023-06-22T11:34:44;14.18;;;5.90;;
38224;SDS011;24025;48.138;11.428;2023-06-22T11:37:16;18.65;;;6.20;;
38224;SDS011;24025;48.138;11.428;2023-06-22T11:39:48;13.02;;;5.88;;
38224;SDS011;24025;48.138;11.428;2023-06-22T11:42:23;10.98;;;5.28;;
38224;SDS011;24025;48.138;11.428;2023-06-22T11:44:54;13.13;;;5.10;;
38224;SDS011;24025;48.138;11.428;2023-06-22T11:47:29;16.40;;;5.95;;
38224;SDS011;24025;48.138;11.428;2023-06-22T11:50:00;14.50;;;5.40;;
38224;SDS011;24025;48.138;11.428;2023-06-22T11:52:33;13.88;;;5.10;;
38224;SDS011;24025;48.138;11.428;2023-06-22T11:57:37;11.60;;;5.65;;
38224;SDS011;24025;48.138;11.428;2023-06-22T12:00:12;16.63;;;5.60;;
38224;SDS011;24025;48.138;11.428;2023-06-22T12:02:48;14.23;;;5.40;;
38224;SDS011;24025;48.138;11.428;2023-06-22T12:05:20;10.05;;;5.50;;
38224;SDS011;24025;48.138;11.428;2023-06-22T12:07:53;13.52;;;5.28;;
38224;SDS011;24025;48.138;11.428;2023-06-22T12:10:26;20.95;;;7.20;;
38224;SDS011;24025;48.138;11.428;2023-06-22T12:13:00;15.50;;;5.15;;
38224;SDS011;24025;48.138;11.428;2023-06-22T12:15:32;11.15;;;5.25;;
38224;SDS011;24025;48.138;11.428;2023-06-22T12:18:03;17.58;;;5.65;;
38224;SDS011;24025;48.138;11.428;2023-06-22T12:20:35;15.43;;;5.63;;
38224;SDS011;24025;48.138;11.428;2023-06-22T12:23:07;17.08;;;5.10;;
38224;SDS011;24025;48.138;11.428;2023-06-22T12:25:39;15.73;;;5.00;;
38224;SDS011;24025;48.138;11.428;2023-06-22T12:28:10;17.55;;;5.20;;
38224;SDS011;24025;48.138;11.428;2023-06-22T12:30:42;14.10;;;5.28;;
38224;SDS011;24025;48.138;11.428;2023-06-22T12:33:13;11.77;;;5.22;;
38224;SDS011;24025;48.138;11.428;2023-06-22T12:35:45;23.35;;;6.28;;
38224;SDS011;24025;48.138;11.428;2023-06-22T12:38:20;12.80;;;4.78;;
38224;SDS011;24025;48.138;11.428;2023-06-22T12:40:51;15.77;;;5.97;;
38224;SDS011;24025;48.138;11.428;2023-06-22T12:43:23;25.15;;;6.10;;
38224;SDS011;24025;48.138;11.428;2023-06-22T12:45:55;25.90;;;6.03;;
38224;SDS011;24025;48.138;11.428;2023-06-22T12:48:27;15.90;;;5.07;;
38224;SDS011;24025;48.138;11.428;2023-06-22T12:50:59;20.30;;;5.25;;
38224;SDS011;24025;48.138;11.428;2023-06-22T12:53:30;15.57;;;5.40;;
38224;SDS011;24025;48.138;11.428;2023-06-22T12:56:02;14.27;;;5.13;;
38224;SDS011;24025;48.138;11.428;2023-06-22T12:58:34;15.60;;;4.82;;
38224;SDS011;24025;48.138;11.428;2023-06-22T13:01:05;14.43;;;5.88;;
38224;SDS011;24025;48.138;11.428;2023-06-22T13:03:37;11.48;;;5.35;;
38224;SDS011;24025;48.138;11.428;2023-06-22T13:06:09;16.63;;;4.93;;
38224;SDS011;24025;48.138;11.428;2023-06-22T13:08:41;16.23;;;5.80;;
38224;SDS011;24025;48.138;11.428;2023-06-22T13:11:34;15.25;;;5.50;;
38224;SDS011;24025;48.138;11.428;2023-06-22T13:14:06;17.33;;;5.38;;
38224;SDS011;24025;48.138;11.428;2023-06-22T13:16:37;15.27;;;5.65;;
38224;SDS011;24025;48.138;11.428;2023-06-22T13:19:09;13.88;;;6.00;;
38224;SDS011;24025;48.138;11.428;2023-06-22T13:21:41;15.48;;;5.85;;
38224;SDS011;24025;48.138;11.428;2023-06-22T13:24:13;14.15;;;6.53;;
38224;SDS011;24025;48.138;11.428;2023-06-22T13:26:45;17.38;;;6.22;;
38224;SDS011;24025;48.138;11.428;2023-06-22T13:29:16;17.77;;;5.38;;
38224;SDS011;24025;48.138;11.428;2023-06-22T13:31:48;13.57;;;5.35;;
38224;SDS011;24025;48.138;11.428;2023-06-22T13:34:20;12.73;;;5.72;;
38224;SDS011;24025;48.138;11.428;2023-06-22T13:36:51;19.65;;;5.80;;
38224;SDS011;24025;48.138;11.428;2023-06-22T13:39:25;20.08;;;5.47;;
38224;SDS011;24025;48.138;11.428;2023-06-22T13:41:57;23.92;;;5.15;;
38224;SDS011;24025;48.138;11.428;2023-06-22T13:44:29;18.80;;;5.38;;
38224;SDS011;24025;48.138;11.428;2023-06-22T13:47:00;17.73;;;5.25;;
38224;SDS011;24025;48.138;11.428;2023-06-22T13:49:32;15.90;;;6.07;;
38224;SDS011;24025;48.138;11.428;2023-06-22T13:52:04;20.42;;;5.13;;
38224;SDS011;24025;48.138;11.428;2023-06-22T13:54:41;12.27;;;5.25;;
38224;SDS011;24025;48.138;11.428;2023-06-22T13:57:13;17.00;;;5.13;;
38224;SDS011;24025;48.138;11.428;2023-06-22T13:59:44;17.70;;;4.80;;
38224;SDS011;24025;48.138;11.428;2023-06-22T14:02:16;18.65;;;5.25;;
38224;SDS011;24025;48.138;11.428;2023-06-22T14:04:48;14.20;;;4.30;;
38224;SDS011;24025;48.138;11.428;2023-06-22T14:07:19;20.70;;;5.10;;
38224;SDS011;24025;48.138;11.428;2023-06-22T14:09:52;15.40;;;5.13;;
38224;SDS011;24025;48.138;11.428;2023-06-22T14:12:24;17.25;;;5.65;;
38224;SDS011;24025;48.138;11.428;2023-06-22T14:14:55;15.70;;;5.53;;
38224;SDS011;24025;48.138;11.428;2023-06-22T14:17:28;20.80;;;5.30;;
38224;SDS011;24025;48.138;11.428;2023-06-22T14:20:00;12.07;;;5.15;;
38224;SDS011;24025;48.138;11.428;2023-06-22T14:22:31;19.17;;;5.20;;
38224;SDS011;24025;48.138;11.428;2023-06-22T14:25:04;18.48;;;5.40;;
38224;SDS011;24025;48.138;11.428;2023-06-22T14:27:36;16.33;;;4.80;;
38224;SDS011;24025;48.138;11.428;2023-06-22T14:30:07;14.60;;;5.03;;
38224;SDS011;24025;48.138;11.428;2023-06-22T14:32:39;17.52;;;5.18;;
38224;SDS011;24025;48.138;11.428;2023-06-22T14:35:11;18.25;;;5.25;;
38224;SDS011;24025;48.138;11.428;2023-06-22T14:37:42;11.73;;;4.63;;
38224;SDS011;24025;48.138;11.428;2023-06-22T14:40:14;14.10;;;4.70;;
38224;SDS011;24025;48.138;11.428;2023-06-22T14:42:46;15.05;;;5.40;;
38224;SDS011;24025;48.138;11.428;2023-06-22T14:45:17;15.88;;;4.38;;
38224;SDS011;24025;48.138;11.428;2023-06-22T14:47:49;15.18;;;5.15;;
38224;SDS011;24025;48.138;11.428;2023-06-22T14:50:21;20.33;;;5.35;;
38224;SDS011;24025;48.138;11.428;2023-06-22T14:52:52;13.73;;;5.57;;
38224;SDS011;24025;48.138;11.428;2023-06-22T14:55:24;15.77;;;5.13;;
38224;SDS011;24025;48.138;11.428;2023-06-22T14:57:56;13.50;;;4.38;;
38224;SDS011;24025;48.138;11.428;2023-06-22T15:00:27;18.25;;;4.63;;
38224;SDS011;24025;48.138;11.428;2023-06-22T15:02:59;15.75;;;5.13;;
38224;SDS011;24025;48.138;11.428;2023-06-22T15:05:31;17.33;;;4.95;;
38224;SDS011;24025;48.138;11.428;2023-06-22T15:08:03;12.25;;;4.88;;
38224;SDS011;24025;48.138;11.428;2023-06-22T15:10:34;15.38;;;4.25;;
38224;SDS011;24025;48.138;11.428;2023-06-22T15:13:07;15.35;;;5.15;;
38224;SDS011;24025;48.138;11.428;2023-06-22T15:15:39;16.63;;;4.82;;
38224;SDS011;24025;48.138;11.428;2023-06-22T15:18:11;19.30;;;4.63;;
38224;SDS011;24025;48.138;11.428;2023-06-22T15:20:42;16.90;;;4.53;;
38224;SDS011;24025;48.138;11.428;2023-06-22T15:23:17;9.60;;;4.40;;
38224;SDS011;24025;48.138;11.428;2023-06-22T15:25:49;20.88;;;5.88;;
38224;SDS011;24025;48.138;11.428;2023-06-22T15:28:20;17.42;;;3.80;;
38224;SDS011;24025;48.138;11.428;2023-06-22T15:30:52;15.27;;;4.28;;
38224;SDS011;24025;48.138;11.428;2023-06-22T15:33:25;18.35;;;4.85;;
38224;SDS011;24025;48.138;11.428;2023-06-22T15:35:56;14.52;;;4.50;;
38224;SDS011;24025;48.138;11.428;2023-06-22T15:38:28;16.75;;;4.60;;
38224;SDS011;24025;48.138;11.428;2023-06-22T15:41:00;17.80;;;4.97;;
38224;SDS011;24025;48.138;11.428;2023-06-22T15:43:32;13.05;;;4.38;;
38224;SDS011;24025;48.138;11.428;2023-06-22T15:46:03;16.10;;;4.73;;
38224;SDS011;24025;48.138;11.428;2023-06-22T15:48:35;20.92;;;4.72;;
38224;SDS011;24025;48.138;11.428;2023-06-22T15:51:08;15.93;;;4.15;;